Time;durP1;ratioP1;P1;durP2;ratioP2;P2;SDS_P1;SDS_P2;PMS_P1;PMS_P2;Temp;Humidity;BMP_temperature;BMP_pressure;BME280_temperature;BME280_humidity;BME280_pressure;Samples;Min_cycle;Max_cycle;Signal;HPM_P1;HPM_P2
2021/08/18 00:02:24;;;;;;;14.10;12.67;;;;;;;;;;5033333;28;20496;-59
2021/08/18 00:04:52;;;;;;;14.27;12.77;;;;;;;;;;5033101;28;20929;-59
2021/08/18 00:07:20;;;;;;;12.63;11.47;;;;;;;;;;5033386;28;20495;-59
2021/08/18 00:12:13;;;;;;;11.87;10.77;;;;;;;;;;5050154;22;20550;-63
2021/08/18 00:14:40;;;;;;;10.63;9.63;;;;;;;;;;5032917;28;20500;-63
2021/08/18 00:17:09;;;;;;;12.90;11.70;;;;;;;;;;5032963;28;20449;-64
2021/08/18 00:19:36;;;;;;;10.87;9.87;;;;;;;;;;5033215;28;20445;-63
2021/08/18 00:22:03;;;;;;;11.50;10.40;;;;;;;;;;5033125;28;20468;-64
2021/08/18 00:24:31;;;;;;;11.00;9.90;;;;;;;;;;5037370;28;20613;-65
2021/08/18 00:26:58;;;;;;;10.07;9.07;;;;;;;;;;5039263;28;20506;-64
2021/08/18 00:29:25;;;;;;;9.53;8.63;;;;;;;;;;5039393;28;20498;-64
2021/08/18 00:31:52;;;;;;;9.73;8.73;;;;;;;;;;5038911;28;20468;-64
2021/08/18 00:34:21;;;;;;;10.03;9.13;;;;;;;;;;5039581;28;20530;-63
2021/08/18 00:36:48;;;;;;;9.00;8.20;;;;;;;;;;5038953;28;21050;-64
2021/08/18 00:39:16;;;;;;;9.27;8.40;;;;;;;;;;5038937;28;20445;-64
2021/08/18 00:41:44;;;;;;;8.47;7.77;;;;;;;;;;5037584;28;20526;-64
2021/08/18 00:44:11;;;;;;;9.10;8.20;;;;;;;;;;5036764;28;21147;-63
2021/08/18 00:46:52;;;;;;;8.90;8.00;;;;;;;;;;5036941;28;20872;-64
2021/08/18 00:49:20;;;;;;;9.33;8.33;;;;;;;;;;5036422;28;20502;-63
2021/08/18 00:51:48;;;;;;;7.97;7.17;;;;;;;;;;5036504;28;20473;-63
2021/08/18 00:54:16;;;;;;;8.17;7.37;;;;;;;;;;5037018;28;20534;-63
2021/08/18 00:56:43;;;;;;;8.00;7.20;;;;;;;;;;5036474;28;20502;-63
2021/08/18 00:59:11;;;;;;;11.27;8.00;;;;;;;;;;5036488;28;20449;-64
2021/08/18 01:01:40;;;;;;;8.10;7.40;;;;;;;;;;5036643;28;20511;-63
2021/08/18 01:04:07;;;;;;;7.87;7.00;;;;;;;;;;5036611;28;20437;-63
2021/08/18 01:06:38;;;;;;;8.40;7.60;;;;;;;;;;5036411;28;20449;-63
2021/08/18 01:09:07;;;;;;;7.87;7.07;;;;;;;;;;5036546;28;20487;-63
2021/08/18 01:11:36;;;;;;;8.47;7.70;;;;;;;;;;5036077;28;20829;-64
2021/08/18 01:14:03;;;;;;;7.50;6.80;;;;;;;;;;5036073;28;20586;-63
2021/08/18 01:16:32;;;;;;;9.17;7.97;;;;;;;;;;5036385;28;20449;-64
2021/08/18 01:18:59;;;;;;;8.20;7.40;;;;;;;;;;5036018;28;20503;-63
2021/08/18 01:21:26;;;;;;;7.93;7.00;;;;;;;;;;5036308;28;20465;-63
2021/08/18 01:23:54;;;;;;;8.90;7.53;;;;;;;;;;5036253;28;20518;-63
2021/08/18 01:26:22;;;;;;;8.37;7.57;;;;;;;;;;5035927;28;20452;-64
2021/08/18 01:28:51;;;;;;;9.93;8.00;;;;;;;;;;5035989;28;20869;-64
2021/08/18 01:31:18;;;;;;;9.00;8.10;;;;;;;;;;5036031;28;20473;-63
2021/08/18 01:33:46;;;;;;;8.40;7.50;;;;;;;;;;5035899;28;20476;-64
2021/08/18 01:36:13;;;;;;;9.57;8.57;;;;;;;;;;5035295;28;20444;-63
2021/08/18 01:38:41;;;;;;;10.87;8.97;;;;;;;;;;5036067;28;20449;-64
2021/08/18 01:41:09;;;;;;;11.03;8.40;;;;;;;;;;5035490;28;20468;-63
2021/08/18 01:43:36;;;;;;;10.03;8.90;;;;;;;;;;5035844;28;20548;-63
2021/08/18 01:46:05;;;;;;;9.13;8.13;;;;;;;;;;5035438;28;20856;-63
2021/08/18 01:48:33;;;;;;;10.20;9.10;;;;;;;;;;5036793;28;20452;-64
2021/08/18 01:51:00;;;;;;;9.80;8.67;;;;;;;;;;5035683;28;20830;-63
2021/08/18 01:53:28;;;;;;;9.60;8.60;;;;;;;;;;5035599;28;20547;-64
2021/08/18 01:55:56;;;;;;;10.97;9.87;;;;;;;;;;5035228;28;20952;-63
2021/08/18 01:58:23;;;;;;;10.77;9.67;;;;;;;;;;5035584;28;20514;-64
2021/08/18 02:00:51;;;;;;;9.77;8.30;;;;;;;;;;5035383;28;20861;-64
2021/08/18 02:03:19;;;;;;;10.70;9.57;;;;;;;;;;5035062;28;20441;-64
2021/08/18 02:05:47;;;;;;;9.60;8.60;;;;;;;;;;5035161;28;20938;-64
2021/08/18 02:08:14;;;;;;;15.67;9.03;;;;;;;;;;5035196;28;20448;-65
2021/08/18 02:10:41;;;;;;;10.03;8.97;;;;;;;;;;5035321;28;20477;-63
2021/08/18 02:13:10;;;;;;;10.87;9.50;;;;;;;;;;5035585;28;20452;-63
2021/08/18 02:15:37;;;;;;;10.20;9.10;;;;;;;;;;5035052;28;20460;-64
2021/08/18 02:18:05;;;;;;;9.87;8.70;;;;;;;;;;5035526;28;20441;-63
2021/08/18 02:20:35;;;;;;;10.47;8.93;;;;;;;;;;5035449;28;20523;-64
2021/08/18 02:23:03;;;;;;;11.00;8.40;;;;;;;;;;5035227;28;20522;-63
2021/08/18 02:25:30;;;;;;;9.70;8.70;;;;;;;;;;5035352;28;20444;-63
2021/08/18 02:27:57;;;;;;;10.13;9.03;;;;;;;;;;5034974;28;20449;-63
2021/08/18 02:30:26;;;;;;;9.03;8.13;;;;;;;;;;5035081;28;20465;-64
2021/08/18 02:32:53;;;;;;;10.60;7.23;;;;;;;;;;5036347;28;20476;-63
2021/08/18 02:35:21;;;;;;;9.23;7.87;;;;;;;;;;5037109;28;20476;-63
2021/08/18 02:37:50;;;;;;;8.90;7.97;;;;;;;;;;5035510;28;20503;-63
2021/08/18 02:40:20;;;;;;;9.03;7.20;;;;;;;;;;5035930;28;20976;-63
2021/08/18 02:42:47;;;;;;;8.30;7.40;;;;;;;;;;5035954;28;20952;-63
2021/08/18 02:45:15;;;;;;;8.50;7.60;;;;;;;;;;5039298;28;20441;-63
2021/08/18 02:47:42;;;;;;;8.00;7.20;;;;;;;;;;5040532;28;20449;-63
2021/08/18 02:50:10;;;;;;;8.20;6.73;;;;;;;;;;5043448;28;20469;-63
2021/08/18 02:52:38;;;;;;;7.47;6.50;;;;;;;;;;5042493;28;20440;-63
2021/08/18 02:55:07;;;;;;;8.70;7.70;;;;;;;;;;5036663;28;20480;-64
2021/08/18 02:57:34;;;;;;;7.87;6.80;;;;;;;;;;5034552;28;20490;-63
2021/08/18 03:00:02;;;;;;;7.40;6.43;;;;;;;;;;5034379;28;20571;-63
2021/08/18 03:02:29;;;;;;;8.50;7.30;;;;;;;;;;5034417;28;20444;-63
2021/08/18 03:04:56;;;;;;;7.80;7.07;;;;;;;;;;5034098;28;20869;-63
2021/08/18 03:07:24;;;;;;;8.87;7.50;;;;;;;;;;5034196;28;20487;-63
2021/08/18 03:09:51;;;;;;;7.90;6.83;;;;;;;;;;5033849;28;20995;-65
2021/08/18 03:12:20;;;;;;;7.93;7.13;;;;;;;;;;5034175;28;20522;-63
2021/08/18 03:14:47;;;;;;;7.50;6.70;;;;;;;;;;5034015;28;20480;-63
2021/08/18 03:17:14;;;;;;;9.70;7.87;;;;;;;;;;5033687;28;20945;-63
2021/08/18 03:19:41;;;;;;;7.13;6.43;;;;;;;;;;5033762;28;20495;-63
2021/08/18 03:22:09;;;;;;;7.27;6.53;;;;;;;;;;5033930;28;20469;-63
2021/08/18 03:24:36;;;;;;;8.37;7.53;;;;;;;;;;5034020;28;20440;-63
2021/08/18 03:27:03;;;;;;;8.63;7.60;;;;;;;;;;5033560;28;20938;-63
2021/08/18 03:29:32;;;;;;;8.03;7.23;;;;;;;;;;5033608;28;20441;-63
2021/08/18 03:31:59;;;;;;;8.70;7.40;;;;;;;;;;5033496;28;20465;-63
2021/08/18 03:34:26;;;;;;;8.70;7.80;;;;;;;;;;5033371;28;20992;-63
2021/08/18 03:36:54;;;;;;;7.33;6.57;;;;;;;;;;5033508;28;20511;-63
2021/08/18 03:39:21;;;;;;;8.30;7.27;;;;;;;;;;5033715;28;20449;-63
2021/08/18 03:41:48;;;;;;;9.50;7.60;;;;;;;;;;5033633;28;20465;-63
2021/08/18 03:44:15;;;;;;;7.97;7.00;;;;;;;;;;5033389;28;20441;-63
2021/08/18 03:46:44;;;;;;;8.63;7.57;;;;;;;;;;5033604;28;20441;-63
2021/08/18 03:49:11;;;;;;;8.90;7.00;;;;;;;;;;5033551;28;20445;-63
2021/08/18 03:51:38;;;;;;;9.30;7.87;;;;;;;;;;5033448;28;20472;-63
2021/08/18 03:54:05;;;;;;;7.50;6.40;;;;;;;;;;5033104;28;20481;-62
2021/08/18 03:56:33;;;;;;;9.17;7.63;;;;;;;;;;5033582;28;20445;-63
2021/08/18 03:59:00;;;;;;;9.20;8.20;;;;;;;;;;5033086;28;20449;-63
2021/08/18 04:01:27;;;;;;;10.13;7.30;;;;;;;;;;5033016;28;20469;-64
2021/08/18 04:03:56;;;;;;;10.67;8.93;;;;;;;;;;5033549;28;20453;-63
2021/08/18 04:08:28;;;;;;;9.40;8.13;;;;;;;;;;5091705;27;20587;-63
2021/08/18 04:10:55;;;;;;;11.43;8.60;;;;;;;;;;5091119;28;20455;-63
2021/08/18 04:13:22;;;;;;;9.27;8.30;;;;;;;;;;5091100;28;20454;-63
2021/08/18 04:15:49;;;;;;;10.00;8.13;;;;;;;;;;5090486;28;21007;-63
2021/08/18 04:18:17;;;;;;;8.90;7.90;;;;;;;;;;5090860;28;20478;-63
2021/08/18 04:20:44;;;;;;;10.47;9.27;;;;;;;;;;5090635;28;20463;-63
2021/08/18 04:23:12;;;;;;;9.80;8.80;;;;;;;;;;5091007;28;20474;-63
2021/08/18 04:25:40;;;;;;;9.40;8.17;;;;;;;;;;5090689;28;20546;-64
2021/08/18 04:28:08;;;;;;;9.00;8.10;;;;;;;;;;5090558;28;20479;-63
2021/08/18 04:30:35;;;;;;;9.90;8.67;;;;;;;;;;5090528;28;20458;-64
2021/08/18 04:33:02;;;;;;;8.90;7.87;;;;;;;;;;5090748;28;20442;-64
2021/08/18 04:35:29;;;;;;;11.07;8.53;;;;;;;;;;5090139;28;20852;-64
2021/08/18 04:37:57;;;;;;;9.53;8.50;;;;;;;;;;5090148;28;20980;-63
2021/08/18 04:40:24;;;;;;;9.50;7.70;;;;;;;;;;5090471;28;20515;-63
2021/08/18 04:42:53;;;;;;;9.67;8.40;;;;;;;;;;5090372;28;20492;-64
2021/08/18 04:45:20;;;;;;;10.03;8.40;;;;;;;;;;5090107;28;20438;-63
2021/08/18 04:47:47;;;;;;;10.77;9.67;;;;;;;;;;5089983;28;20480;-64
2021/08/18 04:50:17;;;;;;;12.07;10.03;;;;;;;;;;5090047;28;20462;-63
2021/08/18 04:52:45;;;;;;;12.13;9.80;;;;;;;;;;5090141;28;20465;-64
2021/08/18 04:55:14;;;;;;;11.00;9.87;;;;;;;;;;5089902;28;20481;-64
2021/08/18 04:57:41;;;;;;;11.30;9.63;;;;;;;;;;5090100;28;20856;-64
2021/08/18 05:00:10;;;;;;;13.90;10.63;;;;;;;;;;5089980;28;20470;-63
2021/08/18 05:02:38;;;;;;;11.53;8.93;;;;;;;;;;5090014;28;20447;-63
2021/08/18 05:05:06;;;;;;;11.27;9.03;;;;;;;;;;5090328;28;20519;-63
2021/08/18 05:07:33;;;;;;;12.93;9.50;;;;;;;;;;5089495;28;20485;-63
2021/08/18 05:10:00;;;;;;;10.97;9.67;;;;;;;;;;5089741;28;20500;-63
2021/08/18 05:12:27;;;;;;;10.70;9.07;;;;;;;;;;5089573;28;20507;-63
2021/08/18 05:14:55;;;;;;;10.83;9.50;;;;;;;;;;5090185;28;20451;-64
2021/08/18 05:17:24;;;;;;;10.70;9.60;;;;;;;;;;5089895;28;20443;-63
2021/08/18 05:19:51;;;;;;;10.63;8.50;;;;;;;;;;5075870;28;20516;-63
2021/08/18 05:22:18;;;;;;;12.73;10.33;;;;;;;;;;5075834;28;20444;-64
2021/08/18 05:24:45;;;;;;;10.27;9.27;;;;;;;;;;5076032;28;20443;-63
2021/08/18 05:27:13;;;;;;;12.23;9.77;;;;;;;;;;5075976;28;20540;-63
2021/08/18 05:29:40;;;;;;;10.00;8.90;;;;;;;;;;5075822;28;20818;-63
2021/08/18 05:32:07;;;;;;;14.33;10.70;;;;;;;;;;5075686;28;20585;-62
2021/08/18 05:34:36;;;;;;;10.90;9.77;;;;;;;;;;5075549;28;20443;-63
2021/08/18 05:37:03;;;;;;;11.50;10.40;;;;;;;;;;5075923;28;20870;-63
2021/08/18 05:39:31;;;;;;;11.20;10.10;;;;;;;;;;5075826;28;20500;-63
2021/08/18 05:41:58;;;;;;;11.20;10.00;;;;;;;;;;5075578;28;20467;-62
2021/08/18 05:44:25;;;;;;;11.40;9.53;;;;;;;;;;5075671;28;20443;-63
2021/08/18 05:46:54;;;;;;;10.57;9.57;;;;;;;;;;5075655;28;20479;-63
2021/08/18 05:49:21;;;;;;;10.17;9.10;;;;;;;;;;5075456;28;20443;-63
2021/08/18 05:51:50;;;;;;;12.70;8.70;;;;;;;;;;5075487;28;20466;-62
2021/08/18 05:54:18;;;;;;;11.93;8.77;;;;;;;;;;5075106;28;20508;-63
2021/08/18 05:56:45;;;;;;;10.43;9.33;;;;;;;;;;5075484;28;20455;-63
2021/08/18 05:59:13;;;;;;;9.83;8.60;;;;;;;;;;5075388;28;20443;-63
2021/08/18 06:01:40;;;;;;;9.60;8.60;;;;;;;;;;5075183;28;20536;-63
2021/08/18 06:04:07;;;;;;;10.20;8.63;;;;;;;;;;5075131;28;20564;-63
2021/08/18 06:06:35;;;;;;;8.83;7.93;;;;;;;;;;5074880;28;20459;-63
2021/08/18 06:09:03;;;;;;;11.13;8.00;;;;;;;;;;5074949;28;20447;-64
2021/08/18 06:11:30;;;;;;;9.40;6.97;;;;;;;;;;5093861;22;20750;-60
2021/08/18 06:13:58;;;;;;;7.57;6.87;;;;;;;;;;5034723;28;20479;-58
2021/08/18 06:16:26;;;;;;;6.53;5.93;;;;;;;;;;5034917;28;20511;-59
2021/08/18 06:18:53;;;;;;;13.20;6.20;;;;;;;;;;5035033;28;20437;-58
2021/08/18 06:21:21;;;;;;;13.67;7.13;;;;;;;;;;5035005;28;20519;-59
2021/08/18 06:23:48;;;;;;;6.60;5.60;;;;;;;;;;5034476;28;20441;-59
2021/08/18 06:26:17;;;;;;;8.13;6.00;;;;;;;;;;5035676;28;20449;-57
2021/08/18 06:28:44;;;;;;;6.73;5.53;;;;;;;;;;5034764;28;20489;-58
2021/08/18 06:31:11;;;;;;;7.43;5.90;;;;;;;;;;5033632;28;20584;-58
2021/08/18 06:33:38;;;;;;;6.50;5.90;;;;;;;;;;5034615;28;20445;-57
2021/08/18 06:36:06;;;;;;;6.83;6.17;;;;;;;;;;5034473;28;20503;-58
2021/08/18 06:38:33;;;;;;;5.87;5.37;;;;;;;;;;5034916;28;20445;-58
2021/08/18 06:41:00;;;;;;;6.63;5.93;;;;;;;;;;5034344;28;21045;-58
2021/08/18 06:43:29;;;;;;;7.40;5.63;;;;;;;;;;5034744;28;20441;-59
2021/08/18 06:45:56;;;;;;;6.83;6.13;;;;;;;;;;5034813;28;20453;-58
2021/08/18 06:48:23;;;;;;;6.57;5.87;;;;;;;;;;5034274;28;20539;-58
2021/08/18 06:50:50;;;;;;;6.57;5.97;;;;;;;;;;5033827;28;20449;-59
2021/08/18 06:53:18;;;;;;;6.00;4.80;;;;;;;;;;5033973;28;20941;-58
2021/08/18 06:55:45;;;;;;;5.53;4.83;;;;;;;;;;5034239;28;20440;-58
2021/08/18 06:58:12;;;;;;;6.07;4.80;;;;;;;;;;5033795;28;21022;-58
2021/08/18 07:00:41;;;;;;;7.53;4.70;;;;;;;;;;5034171;28;20444;-58
2021/08/18 07:03:08;;;;;;;8.50;5.07;;;;;;;;;;5033945;28;20449;-59
2021/08/18 07:05:36;;;;;;;4.90;4.30;;;;;;;;;;5033744;28;20511;-58
2021/08/18 07:08:03;;;;;;;4.17;3.67;;;;;;;;;;5034462;28;20481;-58
2021/08/18 07:10:30;;;;;;;5.33;3.97;;;;;;;;;;5033760;28;21007;-58
2021/08/18 07:12:58;;;;;;;3.50;3.20;;;;;;;;;;5033465;28;20489;-58
2021/08/18 07:15:25;;;;;;;5.57;4.03;;;;;;;;;;5033910;28;20449;-58
2021/08/18 07:17:54;;;;;;;4.80;3.70;;;;;;;;;;5033677;28;20564;-56
2021/08/18 07:20:21;;;;;;;5.00;3.23;;;;;;;;;;5033482;28;21007;-55
2021/08/18 07:22:48;;;;;;;3.80;3.50;;;;;;;;;;5033421;28;20523;-56
2021/08/18 07:25:15;;;;;;;5.07;3.47;;;;;;;;;;5033652;28;20499;-56
2021/08/18 07:27:43;;;;;;;3.27;2.97;;;;;;;;;;5034008;28;20526;-57
2021/08/18 07:30:10;;;;;;;3.40;3.10;;;;;;;;;;5033207;28;20448;-57
2021/08/18 07:32:38;;;;;;;4.53;3.53;;;;;;;;;;5033204;28;20519;-56
2021/08/18 07:35:08;;;;;;;4.10;3.10;;;;;;;;;;5033576;28;20471;-58
2021/08/18 07:37:35;;;;;;;4.00;3.30;;;;;;;;;;5033243;28;20441;-57
2021/08/18 07:40:02;;;;;;;3.93;3.37;;;;;;;;;;5033103;28;20445;-57
2021/08/18 07:42:29;;;;;;;5.40;3.70;;;;;;;;;;5033150;28;20461;-57
2021/08/18 07:44:57;;;;;;;3.20;2.80;;;;;;;;;;5033278;28;20449;-56
2021/08/18 07:47:24;;;;;;;9.30;2.83;;;;;;;;;;5033204;28;20448;-58
2021/08/18 07:49:52;;;;;;;4.13;2.70;;;;;;;;;;5033335;28;20532;-57
2021/08/18 07:52:20;;;;;;;12.10;3.40;;;;;;;;;;5033351;28;20476;-57
2021/08/18 07:54:48;;;;;;;4.63;3.03;;;;;;;;;;5034813;28;20507;-57
2021/08/18 07:57:15;;;;;;;6.50;3.40;;;;;;;;;;5034421;28;20852;-57
2021/08/18 07:59:44;;;;;;;36.30;5.97;;;;;;;;;;5033195;28;20445;-57
2021/08/18 08:02:11;;;;;;;10.30;3.50;;;;;;;;;;5033113;28;20480;-57
2021/08/18 08:04:38;;;;;;;5.10;3.13;;;;;;;;;;5033043;28;20441;-57
2021/08/18 08:07:06;;;;;;;4.20;2.50;;;;;;;;;;5033111;28;20495;-57
2021/08/18 08:09:34;;;;;;;4.43;2.70;;;;;;;;;;5033003;28;20893;-57
2021/08/18 08:12:01;;;;;;;5.50;2.60;;;;;;;;;;5032855;28;20468;-57
2021/08/18 08:14:29;;;;;;;4.00;2.73;;;;;;;;;;5032786;28;20448;-56
2021/08/18 08:16:56;;;;;;;3.20;2.77;;;;;;;;;;5033174;28;20499;-58
2021/08/18 08:19:23;;;;;;;4.40;3.10;;;;;;;;;;5033064;28;20519;-57
2021/08/18 08:21:50;;;;;;;3.17;2.73;;;;;;;;;;5032484;28;20476;-59
2021/08/18 08:24:18;;;;;;;2.77;2.57;;;;;;;;;;5033002;28;20448;-57
2021/08/18 08:26:46;;;;;;;4.07;3.37;;;;;;;;;;5032804;28;20816;-59
2021/08/18 08:29:13;;;;;;;4.47;2.87;;;;;;;;;;5032574;28;20538;-58
2021/08/18 08:31:43;;;;;;;4.07;2.70;;;;;;;;;;5032949;28;20530;-59
2021/08/18 08:34:13;;;;;;;3.60;2.53;;;;;;;;;;5032680;28;21026;-59
2021/08/18 08:36:40;;;;;;;4.27;2.77;;;;;;;;;;5032618;28;20457;-59
2021/08/18 08:39:08;;;;;;;4.63;3.17;;;;;;;;;;5032818;28;20531;-58
2021/08/18 08:41:36;;;;;;;4.30;2.87;;;;;;;;;;5032585;28;20469;-58
2021/08/18 08:44:06;;;;;;;3.33;2.63;;;;;;;;;;5033143;28;20448;-59
2021/08/18 08:46:33;;;;;;;4.57;2.60;;;;;;;;;;5033881;28;20513;-57
2021/08/18 08:49:01;;;;;;;4.87;2.53;;;;;;;;;;5032585;28;20477;-58
2021/08/18 08:51:28;;;;;;;4.03;3.03;;;;;;;;;;5033038;28;20457;-58
2021/08/18 08:53:56;;;;;;;5.97;2.70;;;;;;;;;;5033805;28;20453;-58
2021/08/18 08:56:23;;;;;;;4.80;2.60;;;;;;;;;;5036465;28;20456;-57
2021/08/18 08:58:50;;;;;;;5.47;2.57;;;;;;;;;;5036271;28;20495;-58
2021/08/18 09:01:19;;;;;;;5.73;3.00;;;;;;;;;;5035804;28;20469;-58
2021/08/18 09:03:46;;;;;;;6.23;2.70;;;;;;;;;;5035494;28;20499;-58
2021/08/18 09:06:20;;;;;;;3.33;2.33;;;;;;;;;;5035748;28;20491;-58
2021/08/18 09:08:49;;;;;;;4.40;2.70;;;;;;;;;;5035981;28;20551;-58
2021/08/18 09:11:16;;;;;;;5.53;2.60;;;;;;;;;;5036085;28;20596;-57
2021/08/18 09:13:44;;;;;;;3.07;2.77;;;;;;;;;;5036210;28;20433;-57
2021/08/18 09:16:12;;;;;;;4.60;2.63;;;;;;;;;;5037014;28;20479;-57
2021/08/18 09:18:44;;;;;;;4.30;2.70;;;;;;;;;;5036808;28;20441;-58
2021/08/18 09:21:31;;;;;;;3.47;3.17;;;;;;;;;;5036306;28;20226;-58
2021/08/18 09:24:16;;;;;;;6.07;2.70;;;;;;;;;;5036216;28;20496;-58
2021/08/18 09:26:46;;;;;;;2.53;2.33;;;;;;;;;;5036355;28;20448;-59
2021/08/18 09:29:13;;;;;;;6.37;2.73;;;;;;;;;;5036641;28;20488;-59
2021/08/18 09:31:40;;;;;;;3.63;2.50;;;;;;;;;;5036365;28;20515;-59
2021/08/18 09:34:13;;;;;;;3.43;2.50;;;;;;;;;;5036048;28;20449;-58
2021/08/18 09:36:40;;;;;;;4.90;2.80;;;;;;;;;;5036038;28;20507;-58
2021/08/18 09:39:20;;;;;;;2.70;2.33;;;;;;;;;;5035846;28;20794;-58
2021/08/18 09:41:47;;;;;;;2.43;2.03;;;;;;;;;;5035658;28;20503;-59
2021/08/18 09:44:15;;;;;;;2.77;2.10;;;;;;;;;;5035534;28;20865;-58
2021/08/18 09:46:42;;;;;;;4.17;2.60;;;;;;;;;;5035639;28;20866;-58
2021/08/18 09:49:10;;;;;;;3.00;2.03;;;;;;;;;;5035144;28;20476;-59
2021/08/18 09:51:39;;;;;;;3.70;2.73;;;;;;;;;;5035389;28;20465;-59
2021/08/18 09:54:13;;;;;;;2.47;2.27;;;;;;;;;;5035518;28;20938;-59
2021/08/18 09:56:45;;;;;;;5.57;2.90;;;;;;;;;;5034726;28;20440;-58
2021/08/18 09:59:12;;;;;;;3.43;2.73;;;;;;;;;;5035051;28;20449;-59
2021/08/18 10:01:40;;;;;;;3.73;3.40;;;;;;;;;;5034839;28;20531;-59
2021/08/18 10:04:08;;;;;;;4.77;2.70;;;;;;;;;;5035041;28;20445;-59
2021/08/18 10:06:37;;;;;;;3.60;2.33;;;;;;;;;;5035828;28;20988;-59
2021/08/18 10:09:06;;;;;;;3.07;2.63;;;;;;;;;;5035784;28;20567;-58
2021/08/18 10:11:33;;;;;;;4.43;2.77;;;;;;;;;;5035039;28;20797;-59
2021/08/18 10:14:00;;;;;;;3.10;2.63;;;;;;;;;;5034777;28;20437;-58
2021/08/18 10:16:31;;;;;;;5.13;2.43;;;;;;;;;;5034871;28;20449;-58
2021/08/18 10:19:05;;;;;;;2.53;2.33;;;;;;;;;;5034689;28;20429;-58
2021/08/18 10:21:33;;;;;;;5.10;2.67;;;;;;;;;;5034398;28;20518;-57
2021/08/18 10:24:01;;;;;;;3.50;2.60;;;;;;;;;;5034698;28;20445;-58
2021/08/18 10:26:43;;;;;;;4.90;2.73;;;;;;;;;;5034563;28;20454;-58
2021/08/18 10:29:13;;;;;;;3.37;2.93;;;;;;;;;;5031894;28;20477;-58
2021/08/18 10:31:56;;;;;;;3.60;2.67;;;;;;;;;;5033752;28;20509;-57
2021/08/18 10:34:42;;;;;;;2.37;2.17;;;;;;;;;;5034347;28;20445;-58
2021/08/18 10:37:18;;;;;;;5.00;2.47;;;;;;;;;;5034023;28;21000;-57
2021/08/18 10:39:51;;;;;;;3.87;2.50;;;;;;;;;;5034033;28;20800;-58
2021/08/18 10:42:19;;;;;;;2.70;2.40;;;;;;;;;;5034132;28;20476;-57
2021/08/18 10:44:48;;;;;;;3.83;2.60;;;;;;;;;;5035054;28;20498;-57
2021/08/18 10:47:20;;;;;;;3.47;2.40;;;;;;;;;;5033709;28;20453;-58
2021/08/18 10:49:49;;;;;;;3.13;2.37;;;;;;;;;;5033893;28;20470;-58
2021/08/18 10:52:49;;;;;;;4.53;2.07;;;;;;;;;;5033544;28;21048;-58
2021/08/18 10:55:17;;;;;;;5.20;2.33;;;;;;;;;;4973085;28;20476;-58
2021/08/18 10:57:48;;;;;;;2.87;2.50;;;;;;;;;;4973078;28;20457;-57
2021/08/18 11:00:23;;;;;;;2.60;2.17;;;;;;;;;;5002061;28;20537;-58
2021/08/18 11:02:51;;;;;;;2.33;1.97;;;;;;;;;;5033637;28;20474;-58
2021/08/18 11:05:20;;;;;;;2.30;1.70;;;;;;;;;;5033823;28;20443;-58
2021/08/18 11:08:06;;;;;;;4.07;2.17;;;;;;;;;;5034427;28;20450;-58
2021/08/18 11:10:34;;;;;;;2.00;1.70;;;;;;;;;;5033638;28;20535;-58
2021/08/18 11:13:01;;;;;;;3.77;1.80;;;;;;;;;;5033258;28;20478;-58
2021/08/18 11:15:47;;;;;;;2.67;1.70;;;;;;;;;;5033671;28;20525;-58
2021/08/18 11:18:18;;;;;;;2.80;1.80;;;;;;;;;;5034208;28;20498;-58
2021/08/18 11:20:48;;;;;;;4.37;2.17;;;;;;;;;;5033439;28;20536;-59
2021/08/18 11:23:15;;;;;;;1.60;1.50;;;;;;;;;;5033405;28;20450;-58
2021/08/18 11:25:43;;;;;;;1.40;1.30;;;;;;;;;;5035319;28;20495;-59
2021/08/18 11:28:20;;;;;;;1.77;1.60;;;;;;;;;;5033408;28;20526;-59
2021/08/18 11:30:56;;;;;;;1.83;1.43;;;;;;;;;;5033108;28;20890;-59
2021/08/18 11:33:24;;;;;;;2.13;1.60;;;;;;;;;;5033249;28;20525;-59
2021/08/18 11:35:52;;;;;;;2.07;1.70;;;;;;;;;;5033364;28;20945;-59
2021/08/18 11:38:19;;;;;;;2.03;1.80;;;;;;;;;;5033337;28;20457;-59
2021/08/18 11:40:48;;;;;;;2.07;1.67;;;;;;;;;;5033478;28;20449;-60
2021/08/18 11:43:17;;;;;;;1.63;1.53;;;;;;;;;;5033268;28;20544;-59
2021/08/18 11:45:50;;;;;;;2.20;1.80;;;;;;;;;;5032956;28;20463;-60
2021/08/18 11:48:21;;;;;;;2.13;1.93;;;;;;;;;;5033554;28;20465;-60
2021/08/18 11:50:54;;;;;;;2.23;1.83;;;;;;;;;;5033312;28;20903;-59
2021/08/18 11:53:21;;;;;;;2.00;1.50;;;;;;;;;;5033190;28;20440;-59
2021/08/18 11:55:58;;;;;;;3.70;1.50;;;;;;;;;;5033203;28;20442;-60
2021/08/18 11:58:31;;;;;;;2.10;1.47;;;;;;;;;;5032842;28;20431;-60
2021/08/18 12:00:59;;;;;;;1.20;1.10;;;;;;;;;;5032931;28;20483;-60
2021/08/18 12:03:26;;;;;;;1.33;1.20;;;;;;;;;;5033165;28;20504;-60
2021/08/18 12:06:00;;;;;;;2.13;1.33;;;;;;;;;;5032852;28;20458;-60
2021/08/18 12:08:35;;;;;;;2.03;1.30;;;;;;;;;;5033147;28;20436;-60
2021/08/18 12:13:43;;;;;;;1.90;1.50;;;;;;;;;;5049816;22;20498;-61
2021/08/18 12:16:23;;;;;;;2.00;1.50;;;;;;;;;;5032737;28;20850;-60
2021/08/18 12:18:51;;;;;;;1.30;1.20;;;;;;;;;;5032822;28;20446;-61
2021/08/18 12:21:20;;;;;;;1.70;1.43;;;;;;;;;;5032716;28;20443;-62
2021/08/18 12:23:48;;;;;;;2.10;1.60;;;;;;;;;;5032855;28;20864;-62
2021/08/18 12:26:28;;;;;;;1.67;1.50;;;;;;;;;;5032283;28;20497;-61
2021/08/18 12:28:56;;;;;;;2.97;1.93;;;;;;;;;;5034356;28;20530;-60
2021/08/18 12:31:23;;;;;;;2.10;1.43;;;;;;;;;;5036216;28;20993;-62
2021/08/18 12:34:12;;;;;;;1.93;1.60;;;;;;;;;;5036957;28;20450;-60
2021/08/18 12:36:40;;;;;;;1.60;1.50;;;;;;;;;;5032021;28;20540;-61
2021/08/18 12:39:07;;;;;;;2.13;1.80;;;;;;;;;;5036620;28;20440;-60
2021/08/18 12:41:37;;;;;;;3.13;2.10;;;;;;;;;;5036645;28;20531;-60
2021/08/18 12:44:08;;;;;;;1.63;1.53;;;;;;;;;;5036915;28;20772;-61
2021/08/18 12:46:36;;;;;;;3.00;1.80;;;;;;;;;;5036561;28;20435;-61
2021/08/18 12:49:22;;;;;;;3.10;2.07;;;;;;;;;;5037053;28;20479;-61
2021/08/18 12:51:50;;;;;;;2.97;1.73;;;;;;;;;;5037111;28;20883;-61
2021/08/18 12:54:18;;;;;;;2.10;1.90;;;;;;;;;;5037129;28;20449;-61
2021/08/18 12:56:45;;;;;;;1.80;1.70;;;;;;;;;;5036651;28;20577;-61
2021/08/18 12:59:13;;;;;;;4.27;2.47;;;;;;;;;;5036385;28;20495;-61
2021/08/18 13:01:40;;;;;;;2.67;2.10;;;;;;;;;;5036203;28;20526;-61
2021/08/18 13:04:07;;;;;;;3.63;2.10;;;;;;;;;;5035961;28;20900;-61
2021/08/18 13:06:34;;;;;;;2.67;1.80;;;;;;;;;;5036389;28;20441;-61
2021/08/18 13:09:03;;;;;;;2.30;1.73;;;;;;;;;;5036086;28;20449;-60
2021/08/18 13:11:31;;;;;;;2.23;2.03;;;;;;;;;;5035755;28;20462;-61
2021/08/18 13:13:58;;;;;;;2.70;1.70;;;;;;;;;;5035706;28;20460;-60
2021/08/18 13:16:25;;;;;;;3.43;2.13;;;;;;;;;;5035899;28;20450;-61
2021/08/18 13:18:53;;;;;;;2.50;1.90;;;;;;;;;;5036023;28;20437;-61
2021/08/18 13:21:20;;;;;;;3.20;2.13;;;;;;;;;;5035653;28;20451;-62
2021/08/18 13:23:47;;;;;;;4.50;2.23;;;;;;;;;;5036042;28;20449;-61
2021/08/18 13:26:16;;;;;;;2.90;1.97;;;;;;;;;;5036014;28;20503;-61
2021/08/18 13:28:43;;;;;;;2.43;2.20;;;;;;;;;;5035631;28;20450;-61
2021/08/18 13:31:10;;;;;;;3.90;2.77;;;;;;;;;;5035549;28;20538;-62
2021/08/18 13:33:38;;;;;;;2.50;2.27;;;;;;;;;;5035580;28;20441;-61
2021/08/18 13:36:06;;;;;;;3.40;2.20;;;;;;;;;;5035577;28;20525;-61
2021/08/18 13:38:34;;;;;;;3.30;2.20;;;;;;;;;;5035811;28;20486;-61
2021/08/18 13:41:02;;;;;;;2.30;1.90;;;;;;;;;;5035120;28;20448;-61
2021/08/18 13:43:31;;;;;;;3.20;2.67;;;;;;;;;;5035167;28;20544;-61
2021/08/18 13:45:58;;;;;;;3.73;2.90;;;;;;;;;;5035497;28;20859;-61
2021/08/18 13:48:26;;;;;;;2.83;2.20;;;;;;;;;;5035301;28;20569;-61
2021/08/18 13:50:53;;;;;;;2.50;2.30;;;;;;;;;;5035122;28;21021;-61
2021/08/18 13:53:20;;;;;;;3.50;2.37;;;;;;;;;;5034972;28;20499;-62
2021/08/18 13:55:48;;;;;;;2.77;2.37;;;;;;;;;;5034822;28;20484;-61
2021/08/18 13:58:15;;;;;;;2.83;2.63;;;;;;;;;;5035077;28;20457;-62
2021/08/18 14:00:44;;;;;;;3.43;2.77;;;;;;;;;;5034634;28;20446;-61
2021/08/18 14:03:13;;;;;;;3.27;2.50;;;;;;;;;;5034855;28;20469;-61
2021/08/18 14:05:41;;;;;;;4.10;2.57;;;;;;;;;;5035140;28;20444;-61
2021/08/18 14:08:11;;;;;;;2.63;2.27;;;;;;;;;;5034861;28;20935;-61
2021/08/18 14:10:38;;;;;;;3.20;2.90;;;;;;;;;;5034804;28;20498;-61
2021/08/18 14:13:05;;;;;;;4.23;2.63;;;;;;;;;;5035007;28;20606;-61
2021/08/18 14:15:33;;;;;;;3.80;2.50;;;;;;;;;;5034682;28;21005;-60
2021/08/18 14:18:02;;;;;;;3.47;3.17;;;;;;;;;;5035024;28;20579;-61
2021/08/18 14:20:29;;;;;;;5.70;2.60;;;;;;;;;;5035120;28;20502;-61
2021/08/18 14:22:56;;;;;;;4.97;3.17;;;;;;;;;;5034947;28;20522;-61
2021/08/18 14:25:24;;;;;;;4.80;3.07;;;;;;;;;;5034756;28;20559;-60
2021/08/18 14:27:52;;;;;;;4.90;2.90;;;;;;;;;;5034921;28;20454;-62
2021/08/18 14:30:19;;;;;;;4.43;2.63;;;;;;;;;;5034323;28;20483;-60
2021/08/18 14:32:48;;;;;;;3.30;2.53;;;;;;;;;;5034100;28;20602;-61
2021/08/18 14:35:17;;;;;;;3.10;2.80;;;;;;;;;;5034264;28;20456;-61
2021/08/18 14:37:44;;;;;;;3.17;2.33;;;;;;;;;;5035292;28;20451;-62
2021/08/18 14:40:12;;;;;;;4.27;2.27;;;;;;;;;;5034077;28;20448;-60
2021/08/18 14:42:39;;;;;;;3.67;2.40;;;;;;;;;;5034325;28;20468;-61
2021/08/18 14:45:07;;;;;;;3.40;2.77;;;;;;;;;;5034099;28;20494;-60
2021/08/18 14:47:34;;;;;;;2.93;2.50;;;;;;;;;;5034471;28;20457;-61
2021/08/18 14:50:02;;;;;;;5.17;2.70;;;;;;;;;;5033590;28;20564;-61
2021/08/18 14:52:31;;;;;;;2.93;2.60;;;;;;;;;;5033203;28;21050;-61
2021/08/18 14:54:58;;;;;;;2.50;2.30;;;;;;;;;;5033815;28;20451;-62
2021/08/18 14:57:26;;;;;;;2.33;2.13;;;;;;;;;;5034257;28;20487;-60